Time;durP1;ratioP1;P1;durP2;ratioP2;P2;SDS_P1;SDS_P2;PMS_P1;PMS_P2;Temp;Humidity;BMP_temperature;BMP_pressure;BME280_temperature;BME280_humidity;BME280_pressure;Samples;Min_cycle;Max_cycle;Signal;HPM_P1;HPM_P2
2023/10/04 00:00:42;;;;;;;11.77;3.92;;;20.40;87.60;;;;;;5026221;28;20041;-55
2023/10/04 00:03:00;;;;;;;12.00;4.00;;;20.40;87.60;;;;;;5028031;28;20077;-55
2023/10/04 00:05:26;;;;;;;11.57;3.97;;;20.40;87.80;;;;;;5026438;28;20033;-55
2023/10/04 00:07:54;;;;;;;13.75;4.32;;;20.40;87.90;;;;;;5026162;28;20386;-56
2023/10/04 00:10:21;;;;;;;11.45;3.92;;;20.40;87.90;;;;;;5025070;28;20073;-55
2023/10/04 00:12:47;;;;;;;11.60;4.55;;;20.40;88.00;;;;;;5024972;28;20097;-56
2023/10/04 00:15:13;;;;;;;12.68;3.83;;;20.40;88.10;;;;;;5024963;28;20141;-55
2023/10/04 00:17:42;;;;;;;11.00;4.57;;;20.30;88.10;;;;;;5041174;28;20057;-56
2023/10/04 00:20:13;;;;;;;13.55;4.25;;;20.30;88.10;;;;;;5024922;28;20026;-56
2023/10/04 00:22:40;;;;;;;14.43;4.70;;;20.30;88.20;;;;;;5027984;28;20470;-55
2023/10/04 00:25:08;;;;;;;8.82;3.55;;;20.30;88.30;;;;;;5029048;28;20470;-55
2023/10/04 00:27:33;;;;;;;9.07;3.78;;;20.30;88.40;;;;;;5028756;28;20042;-56
2023/10/04 00:29:59;;;;;;;9.65;3.90;;;20.30;88.40;;;;;;5028919;28;20056;-55
2023/10/04 00:32:26;;;;;;;8.68;4.05;;;20.30;88.50;;;;;;5029876;28;20037;-56
2023/10/04 00:34:52;;;;;;;11.20;4.28;;;20.30;88.60;;;;;;5030114;28;20030;-55
2023/10/04 00:37:18;;;;;;;10.98;3.47;;;20.20;88.60;;;;;;5030084;28;20018;-56
2023/10/04 00:39:43;;;;;;;9.68;3.75;;;20.20;88.70;;;;;;5061718;28;20065;-55
2023/10/04 00:42:09;;;;;;;10.20;3.78;;;20.20;88.80;;;;;;5028578;28;20034;-55
2023/10/04 00:44:35;;;;;;;6.25;3.33;;;20.20;88.90;;;;;;5028521;28;20037;-56
2023/10/04 00:47:05;;;;;;;8.80;3.47;;;20.20;88.90;;;;;;5029630;28;20070;-55
2023/10/04 00:49:33;;;;;;;8.32;3.53;;;20.20;89.00;;;;;;5028480;28;20026;-56
2023/10/04 00:52:02;;;;;;;10.90;3.60;;;20.20;89.10;;;;;;5028434;28;20040;-56
2023/10/04 00:54:29;;;;;;;9.02;3.80;;;20.10;89.10;;;;;;5028309;28;20037;-55
2023/10/04 00:56:55;;;;;;;7.18;3.53;;;20.10;89.10;;;;;;5028507;28;20026;-56
2023/10/04 00:59:20;;;;;;;10.80;3.45;;;20.10;89.30;;;;;;5028384;28;20030;-55
2023/10/04 01:01:46;;;;;;;9.23;3.42;;;20.10;89.30;;;;;;5028249;28;20030;-55
2023/10/04 01:04:11;;;;;;;11.07;3.53;;;20.10;89.40;;;;;;5028242;28;20032;-56
2023/10/04 01:06:37;;;;;;;9.52;3.58;;;20.10;89.50;;;;;;5028282;28;20026;-55
2023/10/04 01:09:03;;;;;;;6.68;4.15;;;20.10;89.50;;;;;;5044449;28;20029;-56
2023/10/04 01:11:33;;;;;;;8.50;4.30;;;20.00;89.60;;;;;;5029259;28;20030;-56
2023/10/04 01:14:06;;;;;;;13.20;4.95;;;20.00;89.70;;;;;;5028159;28;20033;-55
2023/10/04 01:16:34;;;;;;;10.30;4.05;;;20.00;89.80;;;;;;5028209;28;20050;-55
2023/10/04 01:19:00;;;;;;;8.82;4.97;;;20.00;89.90;;;;;;5044625;28;20459;-54
2023/10/04 01:21:25;;;;;;;8.07;4.55;;;20.00;89.90;;;;;;5027589;28;20060;-55
2023/10/04 01:23:51;;;;;;;9.48;4.38;;;19.90;89.90;;;;;;5029158;28;20032;-55
2023/10/04 01:26:25;;;;;;;10.57;4.43;;;19.90;89.90;;;;;;5027646;28;20470;-55
2023/10/04 01:28:55;;;;;;;9.60;4.78;;;20.00;90.00;;;;;;5027675;28;20026;-55
2023/10/04 01:31:21;;;;;;;11.80;4.47;;;19.90;90.00;;;;;;5029017;28;20375;-56
2023/10/04 01:33:47;;;;;;;10.88;4.38;;;19.90;90.00;;;;;;5028553;28;20018;-55
2023/10/04 01:36:13;;;;;;;9.25;4.20;;;19.90;90.10;;;;;;5028804;28;20025;-56
2023/10/04 01:38:39;;;;;;;8.15;4.50;;;19.90;90.40;;;;;;5027295;28;20022;-56
2023/10/04 01:41:04;;;;;;;12.52;4.43;;;19.90;90.20;;;;;;5028808;28;20113;-55
2023/10/04 01:43:30;;;;;;;8.95;4.50;;;19.90;90.20;;;;;;5028718;28;20021;-55
2023/10/04 01:45:59;;;;;;;9.15;4.10;;;19.80;90.50;;;;;;5028866;28;20057;-55
2023/10/04 01:48:30;;;;;;;7.60;4.13;;;19.80;90.50;;;;;;5027523;28;20081;-55
2023/10/04 01:50:56;;;;;;;9.48;4.50;;;19.80;90.30;;;;;;5027436;28;20041;-56
2023/10/04 01:53:25;;;;;;;8.07;4.70;;;19.80;90.30;;;;;;5028546;28;20038;-55
2023/10/04 01:55:51;;;;;;;6.93;4.00;;;19.80;90.30;;;;;;5027334;28;20030;-56
2023/10/04 01:58:23;;;;;;;8.55;4.20;;;19.70;90.30;;;;;;5027301;28;20026;-56
2023/10/04 02:00:55;;;;;;;7.95;4.63;;;19.70;90.30;;;;;;5027211;28;20032;-55
2023/10/04 02:03:21;;;;;;;8.40;4.55;;;19.70;90.30;;;;;;5028491;28;20038;-55
2023/10/04 02:05:50;;;;;;;7.63;4.68;;;19.70;90.40;;;;;;5043666;28;20037;-55
2023/10/04 02:08:17;;;;;;;7.35;4.70;;;19.70;90.40;;;;;;5027080;28;20026;-55
2023/10/04 02:10:45;;;;;;;7.38;5.13;;;19.60;90.40;;;;;;5026875;28;20053;-55
2023/10/04 02:13:15;;;;;;;12.27;4.53;;;19.60;90.40;;;;;;5027947;28;20038;-55
2023/10/04 02:15:41;;;;;;;10.38;4.63;;;19.60;90.50;;;;;;5028335;28;20045;-55
2023/10/04 02:18:07;;;;;;;11.27;4.50;;;19.60;90.50;;;;;;5026916;28;20089;-55
2023/10/04 02:20:33;;;;;;;7.32;4.50;;;19.60;90.50;;;;;;5026911;28;20022;-55
2023/10/04 02:22:59;;;;;;;7.80;4.68;;;19.50;90.40;;;;;;5026681;28;20060;-55
2023/10/04 02:25:25;;;;;;;9.32;4.70;;;19.60;90.50;;;;;;5026818;28;20030;-56
2023/10/04 02:27:55;;;;;;;7.90;4.53;;;19.50;90.40;;;;;;5027733;28;20041;-55
2023/10/04 02:30:26;;;;;;;8.40;4.50;;;19.50;90.50;;;;;;5026659;28;20054;-56
2023/10/04 02:32:52;;;;;;;7.82;4.32;;;19.50;90.50;;;;;;5027891;28;20037;-55
2023/10/04 02:35:28;;;;;;;7.25;4.30;;;19.50;90.40;;;;;;5027922;28;20029;-55
2023/10/04 02:37:59;;;;;;;14.15;4.97;;;19.50;90.50;;;;;;5026744;28;20026;-55
2023/10/04 02:40:27;;;;;;;9.25;3.80;;;19.50;90.50;;;;;;5026516;28;20077;-56
2023/10/04 02:42:54;;;;;;;9.95;4.32;;;19.40;90.50;;;;;;5027757;28;20034;-55
2023/10/04 02:45:20;;;;;;;7.65;4.22;;;19.40;90.50;;;;;;5026714;28;20068;-55
2023/10/04 02:47:48;;;;;;;5.03;3.83;;;19.40;90.50;;;;;;5026451;28;20034;-55
2023/10/04 02:50:15;;;;;;;9.40;4.53;;;19.40;90.50;;;;;;5042981;28;20029;-55
2023/10/04 02:52:40;;;;;;;7.75;4.40;;;19.40;90.50;;;;;;5027503;28;20041;-56
2023/10/04 02:55:06;;;;;;;6.32;3.83;;;19.40;90.50;;;;;;5059329;28;20470;-55
2023/10/04 02:57:32;;;;;;;6.78;4.00;;;19.40;90.50;;;;;;5027470;28;20030;-56
2023/10/04 02:59:58;;;;;;;5.68;3.97;;;19.30;90.50;;;;;;5026091;28;20037;-56
2023/10/04 03:02:24;;;;;;;7.47;3.80;;;19.30;90.50;;;;;;5027238;28;20033;-55
2023/10/04 03:04:51;;;;;;;11.95;4.18;;;19.30;90.50;;;;;;5026161;28;20030;-55
2023/10/04 03:07:17;;;;;;;5.20;3.92;;;19.30;90.50;;;;;;5027164;28;20022;-56
2023/10/04 03:09:43;;;;;;;8.10;3.85;;;19.30;90.50;;;;;;5025986;28;20112;-55
2023/10/04 03:12:12;;;;;;;6.72;3.70;;;19.30;90.50;;;;;;5025813;28;20038;-55
2023/10/04 03:14:38;;;;;;;9.18;3.70;;;19.30;90.50;;;;;;5025637;28;20026;-55
2023/10/04 03:17:13;;;;;;;7.18;3.78;;;19.30;90.50;;;;;;5025863;28;20026;-55
2023/10/04 03:19:38;;;;;;;6.28;3.47;;;19.30;90.50;;;;;;5025911;28;20026;-58
2023/10/04 03:22:04;;;;;;;7.13;3.70;;;19.20;90.60;;;;;;5027306;28;20076;-56
2023/10/04 03:24:29;;;;;;;6.75;3.70;;;19.20;90.60;;;;;;5026972;28;20075;-55
2023/10/04 03:26:55;;;;;;;8.30;3.60;;;19.20;90.50;;;;;;5026781;28;20042;-56
2023/10/04 03:29:21;;;;;;;6.97;4.13;;;19.20;90.50;;;;;;5026958;28;20057;-55
2023/10/04 03:31:49;;;;;;;6.15;4.22;;;19.20;90.60;;;;;;5042155;28;20097;-55
2023/10/04 03:34:15;;;;;;;6.82;4.15;;;19.20;90.60;;;;;;5042024;28;20481;-55
2023/10/04 03:36:46;;;;;;;8.13;4.10;;;19.20;90.60;;;;;;5025727;28;20045;-55
2023/10/04 03:39:12;;;;;;;10.60;4.35;;;19.20;90.70;;;;;;5042476;28;20030;-56
2023/10/04 03:41:38;;;;;;;6.93;4.15;;;19.20;90.60;;;;;;5025681;28;20034;-55
2023/10/04 03:44:05;;;;;;;6.18;3.90;;;19.20;90.60;;;;;;5025320;28;20028;-55
2023/10/04 03:46:31;;;;;;;7.40;3.58;;;19.10;90.60;;;;;;5025445;28;20038;-56
2023/10/04 03:48:58;;;;;;;6.35;3.85;;;19.10;90.60;;;;;;5025300;28;20032;-55
2023/10/04 03:51:24;;;;;;;5.15;4.00;;;19.10;90.60;;;;;;5025352;28;20029;-56
2023/10/04 03:53:53;;;;;;;6.55;3.63;;;19.10;90.60;;;;;;5058137;28;20030;-55
2023/10/04 03:56:20;;;;;;;6.85;3.63;;;19.10;90.70;;;;;;5025393;28;20450;-56
2023/10/04 03:58:48;;;;;;;7.35;4.07;;;19.00;90.70;;;;;;5025163;28;20048;-56
2023/10/04 04:01:14;;;;;;;8.55;3.50;;;19.10;90.70;;;;;;5025276;28;20029;-56
2023/10/04 04:03:40;;;;;;;7.55;4.07;;;19.10;90.70;;;;;;5025070;28;20037;-56
2023/10/04 04:06:05;;;;;;;5.78;3.85;;;19.10;90.70;;;;;;5025175;28;20034;-56
2023/10/04 04:08:31;;;;;;;6.35;3.55;;;19.00;90.70;;;;;;5025105;28;20033;-56
2023/10/04 04:10:57;;;;;;;4.43;3.60;;;19.10;90.80;;;;;;5026359;28;20056;-55
2023/10/04 04:13:23;;;;;;;6.90;3.67;;;19.00;90.70;;;;;;5025125;28;20030;-56
2023/10/04 04:15:49;;;;;;;4.93;3.22;;;19.00;90.80;;;;;;5041713;28;20040;-56
2023/10/04 04:18:21;;;;;;;8.90;4.18;;;18.90;90.80;;;;;;5026236;28;20082;-56
2023/10/04 04:20:47;;;;;;;6.18;3.35;;;18.90;90.90;;;;;;5042022;28;20454;-55
2023/10/04 04:23:14;;;;;;;11.93;3.83;;;18.90;90.90;;;;;;5025463;28;20029;-55
2023/10/04 04:25:40;;;;;;;9.90;4.05;;;18.90;90.90;;;;;;5024937;28;20030;-56
2023/10/04 04:28:07;;;;;;;15.80;4.03;;;18.90;91.00;;;;;;5034125;28;20141;-55
2023/10/04 04:30:35;;;;;;;7.97;3.72;;;18.90;91.00;;;;;;5026083;28;20061;-56
2023/10/04 04:33:04;;;;;;;14.88;4.68;;;18.80;91.00;;;;;;5026007;28;20105;-55
2023/10/04 04:38:22;;;;;;;30.20;6.55;;;18.80;91.00;;;;;;5019723;28;20085;-55
2023/10/04 04:40:49;;;;;;;24.08;6.13;;;18.80;91.00;;;;;;5019972;28;20086;-55
2023/10/04 04:45:53;;;;;;;68.05;10.40;;;18.80;91.00;;;;;;5006317;28;20057;-56
2023/10/04 04:48:23;;;;;;;45.50;8.27;;;18.80;91.10;;;;;;5036127;28;20046;-55
2023/10/04 04:50:53;;;;;;;111.72;15.23;;;18.80;91.10;;;;;;5006344;28;20104;-55
2023/10/04 04:53:22;;;;;;;76.97;10.52;;;18.70;91.00;;;;;;5036914;28;20137;-55
2023/10/04 04:55:50;;;;;;;41.53;7.88;;;18.70;91.00;;;;;;5037339;28;20030;-55
2023/10/04 04:58:20;;;;;;;35.95;7.82;;;18.70;91.00;;;;;;5006250;28;20090;-56
2023/10/04 05:00:49;;;;;;;42.00;7.78;;;18.70;91.00;;;;;;5006259;28;20054;-55
2023/10/04 05:03:18;;;;;;;46.95;7.97;;;18.70;91.00;;;;;;5020897;28;20033;-55
2023/10/04 05:05:44;;;;;;;44.42;6.88;;;18.70;91.00;;;;;;5020854;28;20105;-56
2023/10/04 05:08:10;;;;;;;53.05;7.82;;;18.70;91.10;;;;;;5007067;28;20046;-55
2023/10/04 05:10:38;;;;;;;89.18;11.13;;;18.70;91.10;;;;;;5010737;28;20101;-56
2023/10/04 05:13:07;;;;;;;45.50;7.32;;;18.70;91.10;;;;;;5040930;28;20031;-56
2023/10/04 05:15:35;;;;;;;43.22;7.90;;;18.60;91.10;;;;;;5008610;28;20089;-55
2023/10/04 05:18:04;;;;;;;37.00;6.85;;;18.60;91.10;;;;;;5010045;28;20030;-55
2023/10/04 05:20:31;;;;;;;33.53;7.22;;;18.60;91.10;;;;;;5008503;28;20107;-56
2023/10/04 05:22:58;;;;;;;48.70;7.97;;;18.60;91.10;;;;;;5024445;28;20113;-56
2023/10/04 05:25:23;;;;;;;44.15;8.70;;;18.60;91.40;;;;;;5010249;28;20439;-55
2023/10/04 05:27:49;;;;;;;37.67;8.32;;;18.60;91.10;;;;;;5009520;28;20058;-55
2023/10/04 05:30:16;;;;;;;34.05;7.07;;;18.60;91.20;;;;;;5041131;28;20093;-55
2023/10/04 05:32:42;;;;;;;26.60;6.75;;;18.60;91.20;;;;;;5009231;28;20043;-55
2023/10/04 05:35:12;;;;;;;26.00;6.57;;;18.50;91.20;;;;;;5007928;28;20054;-55
2023/10/04 05:37:44;;;;;;;41.30;7.28;;;18.50;91.20;;;;;;5009236;28;20022;-55
2023/10/04 05:40:16;;;;;;;31.10;7.18;;;18.50;91.20;;;;;;5009189;28;20038;-55
2023/10/04 05:42:46;;;;;;;29.88;7.10;;;18.50;91.50;;;;;;5023489;28;20475;-55
2023/10/04 05:45:12;;;;;;;35.72;6.70;;;18.50;91.30;;;;;;5008969;28;20090;-55
2023/10/04 05:47:38;;;;;;;32.60;6.85;;;18.50;91.20;;;;;;5024040;28;20034;-56
2023/10/04 05:50:05;;;;;;;37.63;7.28;;;18.50;91.20;;;;;;5040574;28;20118;-55
2023/10/04 05:52:32;;;;;;;34.63;6.82;;;18.50;91.30;;;;;;5009051;28;20031;-56
2023/10/04 05:54:59;;;;;;;24.05;6.43;;;18.40;91.40;;;;;;5023818;28;20034;-55
2023/10/04 05:57:24;;;;;;;27.35;6.20;;;18.40;91.40;;;;;;5007431;28;20023;-55
2023/10/04 05:59:50;;;;;;;29.55;6.55;;;18.40;91.40;;;;;;5008758;28;20102;-55
2023/10/04 06:02:16;;;;;;;21.88;6.00;;;18.40;91.40;;;;;;5034984;28;20030;-56
2023/10/04 06:04:42;;;;;;;21.77;5.75;;;18.40;91.40;;;;;;5047779;28;20029;-56
2023/10/04 06:07:08;;;;;;;24.02;5.40;;;18.40;91.40;;;;;;5027382;28;20030;-56
2023/10/04 06:09:35;;;;;;;21.73;5.75;;;18.30;91.40;;;;;;5041106;28;20086;-56
2023/10/04 06:12:02;;;;;;;22.50;5.60;;;18.30;91.50;;;;;;5041024;28;20030;-56
2023/10/04 06:14:27;;;;;;;23.60;6.05;;;18.20;91.50;;;;;;5026244;28;20030;-55
2023/10/04 06:16:53;;;;;;;20.25;6.00;;;18.20;91.60;;;;;;5026668;28;20030;-55
2023/10/04 06:19:25;;;;;;;19.35;5.50;;;18.20;91.60;;;;;;5009145;28;20045;-55
2023/10/04 06:21:52;;;;;;;17.02;5.25;;;18.10;91.70;;;;;;5024641;28;20109;-56
2023/10/04 06:24:17;;;;;;;13.80;5.10;;;18.10;91.70;;;;;;5010932;28;20572;-56
2023/10/04 06:26:43;;;;;;;29.85;6.95;;;18.10;91.80;;;;;;5002275;28;20050;-56
2023/10/04 06:29:08;;;;;;;28.55;8.05;;;18.10;91.80;;;;;;5002515;28;20054;-56
2023/10/04 06:31:34;;;;;;;27.88;6.85;;;18.10;91.80;;;;;;5001906;28;20050;-56
2023/10/04 06:34:01;;;;;;;20.98;6.43;;;18.00;91.80;;;;;;5007914;28;20342;-56
2023/10/04 06:36:29;;;;;;;37.20;8.73;;;18.00;91.80;;;;;;5022189;28;20030;-55
2023/10/04 06:38:56;;;;;;;37.40;9.00;;;18.00;91.80;;;;;;5040112;28;20014;-56
2023/10/04 06:41:25;;;;;;;58.72;11.20;;;18.00;91.80;;;;;;5022141;28;20102;-55
2023/10/04 06:43:51;;;;;;;64.70;10.43;;;18.00;91.80;;;;;;5044677;28;20022;-56
2023/10/04 06:46:17;;;;;;;50.67;10.05;;;18.00;91.90;;;;;;5032776;28;20032;-55
2023/10/04 06:48:43;;;;;;;48.20;8.65;;;18.00;92.00;;;;;;5027765;28;20028;-55
2023/10/04 06:51:09;;;;;;;62.58;11.10;;;18.00;91.90;;;;;;5002824;28;20030;-55
2023/10/04 06:53:35;;;;;;;57.35;9.90;;;18.00;92.00;;;;;;5005601;28;20034;-55
2023/10/04 06:56:01;;;;;;;67.80;11.27;;;18.00;92.00;;;;;;5005382;28;20034;-55
2023/10/04 06:58:28;;;;;;;53.97;9.90;;;18.00;92.00;;;;;;5004928;28;20049;-56
2023/10/04 07:00:56;;;;;;;70.35;12.05;;;18.00;92.00;;;;;;5021389;28;20033;-55
2023/10/04 07:03:22;;;;;;;156.48;18.58;;;18.00;91.90;;;;;;5026364;28;20034;-56
2023/10/04 07:05:49;;;;;;;97.78;14.05;;;17.90;92.10;;;;;;5002616;28;20065;-56
2023/10/04 07:08:16;;;;;;;82.13;12.57;;;17.90;92.10;;;;;;5026610;28;20090;-55
2023/10/04 07:10:42;;;;;;;85.13;11.65;;;17.90;92.20;;;;;;5008512;28;20087;-55
2023/10/04 07:13:08;;;;;;;41.70;9.93;;;17.90;92.10;;;;;;5041961;28;20030;-55
2023/10/04 07:15:39;;;;;;;57.25;10.63;;;17.90;92.00;;;;;;5057264;28;20057;-55
2023/10/04 07:18:15;;;;;;;56.53;10.98;;;18.00;91.90;;;;;;5057220;28;20030;-56
2023/10/04 07:20:40;;;;;;;57.05;10.85;;;17.90;91.70;;;;;;5056381;28;20034;-55
2023/10/04 07:23:07;;;;;;;61.75;10.60;;;17.90;91.70;;;;;;5042016;28;20022;-55
2023/10/04 07:25:37;;;;;;;52.45;9.48;;;18.00;91.60;;;;;;5041725;28;20038;-55
2023/10/04 07:28:04;;;;;;;47.65;9.75;;;18.00;91.50;;;;;;5041476;28;20033;-56
2023/10/04 07:30:33;;;;;;;44.97;8.68;;;18.00;91.50;;;;;;5058151;28;20038;-54
2023/10/04 07:32:59;;;;;;;69.22;11.43;;;18.00;91.50;;;;;;5057912;28;20025;-55
2023/10/04 07:35:25;;;;;;;69.03;10.80;;;18.00;91.40;;;;;;5057980;28;20026;-55
2023/10/04 07:37:51;;;;;;;69.80;10.68;;;18.00;91.40;;;;;;5040411;28;20105;-55
2023/10/04 07:40:17;;;;;;;61.53;11.15;;;18.00;91.40;;;;;;5029388;28;20021;-55
2023/10/04 07:42:45;;;;;;;51.83;10.35;;;18.00;91.30;;;;;;5038024;28;20090;-55
2023/10/04 07:45:11;;;;;;;55.70;9.25;;;18.00;91.30;;;;;;5024677;28;20101;-55
2023/10/04 07:47:37;;;;;;;66.78;9.80;;;18.00;91.20;;;;;;5021538;28;20014;-56
2023/10/04 07:50:09;;;;;;;47.30;10.27;;;18.00;91.10;;;;;;5007812;28;20045;-55
2023/10/04 07:52:37;;;;;;;66.43;10.32;;;18.00;91.20;;;;;;5024907;28;20042;-55
2023/10/04 07:55:05;;;;;;;56.00;10.43;;;18.00;91.20;;;;;;5008704;28;20036;-55
2023/10/04 07:57:36;;;;;;;55.97;10.57;;;18.00;91.20;;;;;;5026030;28;20022;-55
2023/10/04 08:00:04;;;;;;;41.67;9.10;;;17.90;91.10;;;;;;5031494;28;20037;-56
2023/10/04 08:02:30;;;;;;;46.45;9.15;;;18.00;91.00;;;;;;5021256;28;20032;-55
2023/10/04 08:04:56;;;;;;;45.47;8.68;;;18.00;90.90;;;;;;5047608;28;20042;-55
2023/10/04 08:07:21;;;;;;;51.22;8.73;;;18.00;90.80;;;;;;5018407;28;20029;-55
2023/10/04 08:09:47;;;;;;;45.83;8.43;;;18.00;90.70;;;;;;5020125;28;20026;-55
2023/10/04 08:12:14;;;;;;;43.05;8.55;;;18.00;90.60;;;;;;5014775;28;20033;-56
2023/10/04 08:14:40;;;;;;;63.53;9.48;;;18.00;90.60;;;;;;5019210;28;20097;-56
2023/10/04 08:17:06;;;;;;;39.78;8.52;;;18.00;90.60;;;;;;5016720;28;20046;-55
2023/10/04 08:19:32;;;;;;;50.95;8.20;;;18.00;90.60;;;;;;5017042;28;20038;-55
2023/10/04 08:21:58;;;;;;;38.55;8.38;;;18.00;90.50;;;;;;4995782;28;20022;-56
2023/10/04 08:24:23;;;;;;;53.00;8.82;;;18.00;90.40;;;;;;5018838;28;20030;-52
2023/10/04 08:26:50;;;;;;;49.20;9.35;;;18.00;90.50;;;;;;5016730;28;20030;-52
2023/10/04 08:29:15;;;;;;;39.85;8.57;;;18.00;90.50;;;;;;5016766;28;20054;-52
2023/10/04 08:31:41;;;;;;;50.67;8.93;;;18.00;90.50;;;;;;5022364;28;20115;-52
2023/10/04 08:34:06;;;;;;;69.43;10.20;;;18.00;90.40;;;;;;5018523;28;20034;-52
2023/10/04 08:36:35;;;;;;;50.70;8.50;;;18.00;90.20;;;;;;5017826;28;20394;-53
2023/10/04 08:39:06;;;;;;;84.13;12.63;;;18.00;90.20;;;;;;5044232;28;20091;-52
2023/10/04 08:41:32;;;;;;;63.55;9.70;;;18.10;90.20;;;;;;5020971;28;20456;-52
2023/10/04 08:43:57;;;;;;;58.00;10.32;;;18.10;90.20;;;;;;5018956;28;20042;-52
2023/10/04 08:46:23;;;;;;;71.22;10.60;;;18.10;90.10;;;;;;4990424;28;20033;-52
2023/10/04 08:48:53;;;;;;;73.95;10.95;;;18.10;90.10;;;;;;5037081;28;20034;-52
2023/10/04 08:51:39;;;;;;;96.47;13.52;;;18.10;90.10;;;;;;5024573;28;20034;-52
2023/10/04 08:54:13;;;;;;;72.55;11.98;;;18.10;90.10;;;;;;5017583;28;20088;-52
2023/10/04 08:56:50;;;;;;;80.38;12.45;;;18.20;90.10;;;;;;5025252;28;20038;-52
2023/10/04 08:59:17;;;;;;;72.95;11.32;;;18.10;90.10;;;;;;5026601;28;20053;-52
2023/10/04 09:01:43;;;;;;;98.75;12.93;;;18.20;90.10;;;;;;5038009;28;20052;-52
2023/10/04 09:04:09;;;;;;;91.07;11.75;;;18.20;90.00;;;;;;5030364;28;20022;-52
2023/10/04 09:06:35;;;;;;;62.08;10.25;;;18.20;89.90;;;;;;5038265;28;20022;-53
2023/10/04 09:09:01;;;;;;;93.75;12.32;;;18.20;89.90;;;;;;5009404;28;20088;-53
2023/10/04 09:11:26;;;;;;;99.43;13.93;;;18.20;90.00;;;;;;5027517;28;20025;-52
2023/10/04 09:13:54;;;;;;;54.70;10.02;;;18.20;90.00;;;;;;5025610;28;20029;-52
2023/10/04 09:16:19;;;;;;;64.93;10.10;;;18.20;90.00;;;;;;5042129;28;20030;-52
2023/10/04 09:18:45;;;;;;;59.92;9.57;;;18.30;89.90;;;;;;5026891;28;20060;-52
2023/10/04 09:21:15;;;;;;;103.35;13.32;;;18.30;90.10;;;;;;5013264;28;20103;-52
2023/10/04 09:23:43;;;;;;;110.57;14.88;;;18.30;90.10;;;;;;5025211;28;20022;-52
2023/10/04 09:26:19;;;;;;;68.63;11.68;;;18.30;90.10;;;;;;5026511;28;20068;-52
2023/10/04 09:28:44;;;;;;;68.32;11.63;;;18.30;90.00;;;;;;5025404;28;20034;-52
2023/10/04 09:31:11;;;;;;;79.97;11.65;;;18.30;90.00;;;;;;5018420;28;20049;-52
2023/10/04 09:33:37;;;;;;;83.90;11.52;;;18.30;90.00;;;;;;5040668;28;20028;-52
2023/10/04 09:36:03;;;;;;;106.82;13.90;;;18.30;89.90;;;;;;5041941;28;20501;-52
2023/10/04 09:38:31;;;;;;;99.72;15.23;;;18.30;89.60;;;;;;5027829;28;20025;-52
2023/10/04 09:40:57;;;;;;;96.60;12.25;;;18.40;89.40;;;;;;5007312;28;20034;-52
2023/10/04 09:43:39;;;;;;;78.25;12.43;;;18.40;89.30;;;;;;5026761;28;20147;-52
2023/10/04 09:46:09;;;;;;;85.75;13.15;;;18.50;89.10;;;;;;5018401;28;20046;-52
2023/10/04 09:48:37;;;;;;;128.70;16.77;;;18.50;89.00;;;;;;5020773;28;20065;-52
2023/10/04 09:51:06;;;;;;;105.18;16.10;;;18.50;88.60;;;;;;5026792;28;20038;-52
2023/10/04 09:53:33;;;;;;;140.43;17.35;;;18.50;88.50;;;;;;5017342;28;20030;-52
2023/10/04 09:56:02;;;;;;;130.63;17.23;;;18.50;88.50;;;;;;5033793;28;20037;-52
2023/10/04 09:58:31;;;;;;;117.05;15.63;;;18.50;88.40;;;;;;5040921;28;20025;-52
2023/10/04 10:01:06;;;;;;;115.10;16.08;;;18.50;88.20;;;;;;5008324;28;20026;-52
2023/10/04 10:03:33;;;;;;;136.27;17.35;;;18.50;88.10;;;;;;5025162;28;20443;-52
2023/10/04 10:05:59;;;;;;;120.95;16.73;;;18.60;88.10;;;;;;5023502;28;20042;-52
2023/10/04 10:08:26;;;;;;;160.85;16.63;;;18.50;88.10;;;;;;5010974;28;20037;-52
2023/10/04 10:10:52;;;;;;;141.02;17.17;;;18.60;88.30;;;;;;5027849;28;20038;-52
2023/10/04 10:13:17;;;;;;;110.53;15.25;;;18.50;88.10;;;;;;5007395;28;20080;-52
2023/10/04 10:15:43;;;;;;;107.55;14.90;;;18.60;87.80;;;;;;5012737;28;20117;-52
2023/10/04 10:18:09;;;;;;;115.80;16.02;;;18.60;87.60;;;;;;5001805;28;20030;-52
2023/10/04 10:20:34;;;;;;;123.43;17.02;;;18.60;87.50;;;;;;5023433;28;20030;-52
2023/10/04 10:23:00;;;;;;;94.47;14.73;;;18.60;87.40;;;;;;5022824;28;20065;-52
2023/10/04 10:25:30;;;;;;;134.32;16.35;;;18.60;87.40;;;;;;5026764;28;20459;-52
2023/10/04 10:28:01;;;;;;;103.93;14.55;;;18.70;87.30;;;;;;5022047;28;20038;-52
2023/10/04 10:30:27;;;;;;;118.53;16.10;;;18.70;87.30;;;;;;5024113;28;20084;-52
2023/10/04 10:32:55;;;;;;;93.80;13.57;;;18.70;87.30;;;;;;5024610;28;20386;-52
2023/10/04 10:35:48;;;;;;;104.30;14.20;;;18.70;87.10;;;;;;5013635;28;20026;-52
2023/10/04 10:38:45;;;;;;;132.02;15.25;;;18.80;87.10;;;;;;5026297;28;20041;-52
2023/10/04 10:41:28;;;;;;;;;;;18.70;86.80;;;;;;5025770;28;20030;-52
2023/10/04 10:44:13;;;;;;;88.70;14.18;;;18.70;86.60;;;;;;5014442;28;19917;-52
2023/10/04 10:47:04;;;;;;;132.38;18.10;;;18.80;86.70;;;;;;5057857;28;20030;-53
2023/10/04 10:49:52;;;;;;;148.85;18.42;;;18.90;86.50;;;;;;5010984;28;20038;-52
2023/10/04 10:52:23;;;;;;;137.98;17.63;;;19.00;86.10;;;;;;5025655;28;20113;-52
2023/10/04 10:54:52;;;;;;;120.43;16.60;;;19.00;85.60;;;;;;5025549;28;20050;-52
2023/10/04 10:57:19;;;;;;;132.70;15.60;;;19.00;85.60;;;;;;5029034;28;20021;-52
2023/10/04 10:59:46;;;;;;;151.82;17.15;;;19.00;85.40;;;;;;5023656;28;20026;-51
2023/10/04 11:02:12;;;;;;;157.98;17.65;;;19.10;85.90;;;;;;5040679;28;20041;-52
2023/10/04 11:04:38;;;;;;;117.93;17.48;;;19.10;85.10;;;;;;5040352;28;20096;-52
2023/10/04 11:07:06;;;;;;;105.90;15.00;;;19.10;85.20;;;;;;5032381;28;20038;-52
2023/10/04 11:09:37;;;;;;;148.63;16.42;;;19.10;85.30;;;;;;5024936;28;20497;-52
2023/10/04 11:12:09;;;;;;;130.43;15.75;;;19.10;85.10;;;;;;5008268;28;20454;-53
2023/10/04 11:14:36;;;;;;;140.60;17.88;;;19.10;85.00;;;;;;5003839;28;20046;-52
2023/10/04 11:17:03;;;;;;;118.35;16.70;;;19.10;84.70;;;;;;5035042;28;20048;-52
2023/10/04 11:19:30;;;;;;;133.85;16.42;;;19.20;84.70;;;;;;5006922;28;20101;-52
2023/10/04 11:21:57;;;;;;;119.55;15.55;;;19.20;84.60;;;;;;5018909;28;20029;-52
2023/10/04 11:24:23;;;;;;;89.18;13.43;;;19.20;84.50;;;;;;5009036;28;20041;-52
2023/10/04 11:26:48;;;;;;;90.28;13.18;;;19.20;84.30;;;;;;5027159;28;20026;-52
2023/10/04 11:29:14;;;;;;;94.00;12.88;;;19.20;84.30;;;;;;5043420;28;20033;-52
2023/10/04 11:31:40;;;;;;;103.90;15.23;;;19.20;84.10;;;;;;5031483;28;20028;-52
2023/10/04 11:34:06;;;;;;;115.82;14.18;;;19.20;84.10;;;;;;5024737;28;20033;-52
2023/10/04 11:36:34;;;;;;;121.90;15.23;;;19.20;84.10;;;;;;5025280;28;20030;-52
2023/10/04 11:39:00;;;;;;;89.57;13.60;;;19.30;84.30;;;;;;5017789;28;20027;-52
2023/10/04 11:41:29;;;;;;;106.25;14.73;;;19.30;84.40;;;;;;5022021;28;20022;-53
2023/10/04 11:44:02;;;;;;;130.80;15.32;;;19.40;84.10;;;;;;5026393;28;20026;-52
2023/10/04 11:46:28;;;;;;;108.65;14.60;;;19.40;84.00;;;;;;5024722;28;20026;-52
2023/10/04 11:49:11;;;;;;;95.53;13.52;;;19.40;84.00;;;;;;5010836;28;20040;-52
2023/10/04 11:51:38;;;;;;;109.60;14.57;;;19.40;83.90;;;;;;5017860;28;20041;-52
2023/10/04 11:54:04;;;;;;;89.32;12.85;;;19.40;84.00;;;;;;5022999;28;20041;-52
2023/10/04 11:56:32;;;;;;;81.65;12.70;;;19.50;83.80;;;;;;5013219;28;20034;-52
2023/10/04 11:58:58;;;;;;;92.07;13.65;;;19.50;83.50;;;;;;5029695;28;20042;-52
2023/10/04 12:01:24;;;;;;;92.97;14.07;;;19.60;83.60;;;;;;5023517;28;20045;-52
2023/10/04 12:03:50;;;;;;;96.97;13.90;;;19.60;83.40;;;;;;5017413;28;20027;-51
2023/10/04 12:06:26;;;;;;;95.55;15.15;;;19.60;83.40;;;;;;5022284;28;20044;-52
2023/10/04 12:08:54;;;;;;;85.07;13.85;;;19.60;83.30;;;;;;5008099;28;20034;-51
2023/10/04 12:11:23;;;;;;;91.70;14.70;;;19.70;83.20;;;;;;5023920;28;20383;-52
2023/10/04 12:13:49;;;;;;;90.35;14.52;;;19.70;83.00;;;;;;5026931;28;20022;-52
2023/10/04 12:16:16;;;;;;;100.97;13.15;;;19.70;82.90;;;;;;5023919;28;20084;-52
2023/10/04 12:18:43;;;;;;;83.72;12.88;;;19.70;82.70;;;;;;5029284;28;20029;-53
2023/10/04 12:21:08;;;;;;;88.35;14.82;;;19.70;82.60;;;;;;4999256;28;20026;-52
2023/10/04 12:23:34;;;;;;;91.80;13.07;;;19.80;82.30;;;;;;5028478;28;20025;-52
2023/10/04 12:26:00;;;;;;;81.85;13.25;;;19.70;82.40;;;;;;5035137;28;20029;-52
2023/10/04 12:28:29;;;;;;;106.72;15.50;;;19.80;82.10;;;;;;5039539;28;20036;-52
2023/10/04 12:31:07;;;;;;;107.43;15.60;;;19.80;81.90;;;;;;5028823;28;20093;-52
2023/10/04 12:33:35;;;;;;;119.35;15.40;;;19.80;81.90;;;;;;5028351;28;20044;-51
2023/10/04 12:36:01;;;;;;;91.97;15.00;;;19.90;82.10;;;;;;5022837;28;20042;-52
2023/10/04 12:38:27;;;;;;;93.20;13.07;;;19.90;82.10;;;;;;5038588;28;20024;-53
2023/10/04 12:40:53;;;;;;;91.70;14.27;;;19.90;82.00;;;;;;5028736;28;20089;-52